Time;durP1;ratioP1;P1;durP2;ratioP2;P2;SDS_P1;SDS_P2;PMS_P1;PMS_P2;Temp;Humidity;BMP_temperature;BMP_pressure;BME280_temperature;BME280_humidity;BME280_pressure;Samples;Min_cycle;Max_cycle;Signal;HPM_P1;HPM_P2
2023/07/15 00:02:16;;;;;;;6.05;0.70;;;;;;;21.59;89.93;100686.34;5067101;28;20503;-68
2023/07/15 00:04:42;;;;;;;4.15;0.70;;;;;;;21.59;90.18;100686.34;5065760;28;20375;-68
2023/07/15 00:07:08;;;;;;;4.95;0.60;;;;;;;21.53;90.12;100680.84;5060033;28;20477;-68
2023/07/15 00:09:33;;;;;;;1.58;0.70;;;;;;;21.53;90.04;100680.84;5075723;28;20035;-68
2023/07/15 00:12:00;;;;;;;3.13;0.40;;;;;;;21.48;90.21;100675.38;5071426;28;20033;-68
2023/07/15 00:14:26;;;;;;;1.42;0.50;;;;;;;21.46;90.47;100671.31;5071586;28;20475;-68
2023/07/15 00:16:51;;;;;;;1.90;0.60;;;;;;;21.45;90.73;100670.47;5073509;28;20043;-68
2023/07/15 00:19:20;;;;;;;1.45;0.50;;;;;;;21.45;90.10;100670.47;5073514;28;20032;-68
2023/07/15 00:21:46;;;;;;;1.10;0.60;;;;;;;21.45;90.51;100664.38;5070540;28;20035;-68
2023/07/15 00:24:12;;;;;;;4.57;0.50;;;;;;;21.45;90.13;100667.84;5069898;28;20037;-68
2023/07/15 00:26:39;;;;;;;4.38;0.73;;;;;;;21.48;89.79;100664.75;5071634;28;20159;-68
2023/07/15 00:29:05;;;;;;;2.28;0.50;;;;;;;21.49;89.98;100666.38;5072642;28;20028;-67
2023/07/15 00:31:32;;;;;;;5.50;1.33;;;;;;;21.46;89.97;100666.81;5072135;28;20040;-68
2023/07/15 00:33:58;;;;;;;3.60;0.70;;;;;;;21.43;90.32;100669.88;5072016;28;20155;-68
2023/07/15 00:36:24;;;;;;;3.45;0.63;;;;;;;21.40;90.99;100670.31;5052011;28;20032;-68
2023/07/15 00:38:50;;;;;;;6.35;1.35;;;;;;;21.29;91.57;100664.84;5060127;28;20050;-68
2023/07/15 00:41:27;;;;;;;2.22;0.65;;;;;;;21.24;92.08;100668.13;5065280;28;20090;-68
2023/07/15 00:43:58;;;;;;;2.13;0.65;;;;;;;21.23;92.16;100677.13;5061258;28;20107;-68
2023/07/15 00:46:28;;;;;;;5.13;0.85;;;;;;;21.25;91.67;100663.66;5070208;28;20058;-68
2023/07/15 00:49:14;;;;;;;3.63;0.65;;;;;;;21.20;91.51;100667.72;5084693;28;20032;-69
2023/07/15 00:51:47;;;;;;;;;;;;;;;21.16;91.76;100669.16;5092679;28;20027;-69
2023/07/15 00:54:13;;;;;;;3.97;1.25;;;;;;;21.16;92.31;100670.97;5089452;28;19912;-69
2023/07/15 00:56:41;;;;;;;4.38;0.88;;;;;;;21.13;92.54;100663.44;5094816;28;20419;-68
2023/07/15 00:59:09;;;;;;;2.22;0.60;;;;;;;21.12;92.51;100664.47;5089485;28;20553;-68
2023/07/15 01:01:36;;;;;;;2.05;0.60;;;;;;;21.09;92.92;100659.59;5098387;28;20028;-68
2023/07/15 01:04:02;;;;;;;1.92;0.82;;;;;;;21.06;93.29;100658.16;5088340;28;20032;-68
2023/07/15 01:06:28;;;;;;;1.88;0.60;;;;;;;21.07;93.40;100657.16;5095234;28;20031;-68
2023/07/15 01:08:53;;;;;;;2.25;0.50;;;;;;;21.09;93.46;100655.09;5086052;28;20027;-68
2023/07/15 01:11:19;;;;;;;2.53;0.52;;;;;;;21.08;93.31;100657.97;5086126;28;20036;-68
2023/07/15 01:13:47;;;;;;;0.90;0.50;;;;;;;21.04;93.13;100651.44;5091766;28;20035;-68
2023/07/15 01:16:12;;;;;;;4.57;0.55;;;;;;;21.05;93.26;100653.91;5081184;28;20404;-68
2023/07/15 01:18:38;;;;;;;3.38;0.73;;;;;;;20.97;93.79;100648.00;5092354;28;20153;-68
2023/07/15 01:21:04;;;;;;;7.15;0.70;;;;;;;20.97;93.95;100642.72;5092324;28;20034;-68
2023/07/15 01:23:30;;;;;;;1.95;0.63;;;;;;;20.94;93.66;100645.78;5090588;28;20531;-67
2023/07/15 01:25:56;;;;;;;3.13;0.60;;;;;;;20.96;93.20;100644.53;5073846;28;20134;-69
2023/07/15 01:28:22;;;;;;;1.70;0.60;;;;;;;20.94;93.16;100638.63;5093681;28;20470;-67
2023/07/15 01:30:48;;;;;;;2.45;0.70;;;;;;;20.91;93.38;100638.25;5074064;28;20032;-68
2023/07/15 01:33:18;;;;;;;2.25;0.68;;;;;;;20.91;93.74;100640.88;5090700;28;20055;-68
2023/07/15 01:35:48;;;;;;;1.98;0.70;;;;;;;20.87;93.92;100637.84;5085242;28;20027;-68
2023/07/15 01:38:16;;;;;;;4.68;0.63;;;;;;;20.80;94.33;100640.50;5091397;28;20029;-68
2023/07/15 01:40:43;;;;;;;5.00;0.70;;;;;;;20.82;94.45;100640.28;5087080;28;20073;-68
2023/07/15 01:43:09;;;;;;;1.83;0.45;;;;;;;20.80;94.70;100645.78;5093962;28;20029;-68
2023/07/15 01:45:36;;;;;;;3.47;0.75;;;;;;;20.80;94.57;100645.78;5089057;28;20142;-68
2023/07/15 01:48:01;;;;;;;5.03;0.60;;;;;;;20.78;94.76;100645.22;5094836;28;20491;-68
2023/07/15 01:50:26;;;;;;;3.42;0.80;;;;;;;20.73;95.30;100642.38;5082778;28;20047;-68
2023/07/15 01:52:52;;;;;;;2.67;0.70;;;;;;;20.63;95.95;100644.63;5093876;28;20039;-68
2023/07/15 01:55:17;;;;;;;3.33;0.82;;;;;;;20.58;96.80;100647.06;5085617;28;20084;-68
2023/07/15 01:57:43;;;;;;;3.35;0.63;;;;;;;20.53;96.85;100646.88;5095003;28;20031;-68
2023/07/15 02:00:10;;;;;;;1.88;0.80;;;;;;;20.53;97.00;100638.94;5091547;28;20111;-69
2023/07/15 02:02:35;;;;;;;3.80;0.43;;;;;;;20.57;96.00;100649.91;5066781;28;20087;-68
2023/07/15 02:05:00;;;;;;;5.45;0.50;;;;;;;20.59;95.85;100656.63;5101913;28;20539;-68
2023/07/15 02:07:26;;;;;;;2.75;0.65;;;;;;;20.61;94.72;100641.38;5089038;28;20062;-68
2023/07/15 02:09:51;;;;;;;2.97;0.80;;;;;;;20.61;94.62;100644.00;5092286;28;20035;-68
2023/07/15 02:12:17;;;;;;;2.75;0.80;;;;;;;20.58;94.86;100644.41;5078844;28;20035;-68
2023/07/15 02:14:43;;;;;;;2.50;0.65;;;;;;;20.60;95.08;100647.69;5099256;28;20143;-68
2023/07/15 02:17:08;;;;;;;3.90;0.63;;;;;;;20.51;95.66;100640.97;5094997;28;20036;-69
2023/07/15 02:19:34;;;;;;;3.63;0.88;;;;;;;20.40;97.01;100642.38;5093461;28;20028;-68
2023/07/15 02:21:59;;;;;;;2.60;0.50;;;;;;;20.34;97.79;100640.53;5099386;28;20024;-69
2023/07/15 02:24:25;;;;;;;4.32;0.73;;;;;;;20.32;98.03;100631.19;5096212;28;20032;-68
2023/07/15 02:26:51;;;;;;;4.05;0.70;;;;;;;20.32;98.10;100637.25;5092234;28;20035;-68
2023/07/15 02:29:16;;;;;;;3.10;1.10;;;;;;;20.30;98.02;100641.16;5091404;28;20032;-68
2023/07/15 02:31:42;;;;;;;2.90;0.85;;;;;;;20.33;97.48;100640.72;5091878;28;20055;-68
2023/07/15 02:34:08;;;;;;;5.90;0.90;;;;;;;20.34;97.38;100647.66;5093751;28;20028;-68
2023/07/15 02:36:34;;;;;;;3.83;0.50;;;;;;;20.36;97.01;100643.78;5087729;28;20032;-68
2023/07/15 02:39:00;;;;;;;2.28;0.88;;;;;;;20.35;97.20;100652.75;5088936;28;20016;-68
2023/07/15 02:41:25;;;;;;;3.30;0.70;;;;;;;20.33;97.07;100648.66;5096602;28;20090;-68
2023/07/15 02:43:51;;;;;;;5.50;0.70;;;;;;;20.28;97.78;100643.19;5084792;28;20377;-67
2023/07/15 02:46:16;;;;;;;1.20;0.50;;;;;;;20.27;97.36;100639.75;5096394;28;20044;-68
2023/07/15 02:48:42;;;;;;;5.07;1.23;;;;;;;20.21;97.85;100641.38;5093045;28;20043;-67
2023/07/15 02:51:07;;;;;;;2.35;1.10;;;;;;;20.20;97.86;100638.91;5096979;28;20038;-68
2023/07/15 02:53:33;;;;;;;1.50;0.50;;;;;;;20.17;97.88;100637.50;5091862;28;20039;-68
2023/07/15 02:55:58;;;;;;;6.18;0.65;;;;;;;20.16;98.46;100642.97;5088766;28;20124;-65
2023/07/15 02:58:24;;;;;;;4.25;0.60;;;;;;;20.17;98.47;100639.31;5095108;28;20032;-66
2023/07/15 03:00:52;;;;;;;3.25;0.70;;;;;;;20.14;98.56;100645.00;5096309;28;20032;-65
2023/07/15 03:03:19;;;;;;;2.92;0.60;;;;;;;20.15;98.19;100636.88;5088820;28;20032;-65
2023/07/15 03:05:48;;;;;;;1.63;0.50;;;;;;;20.14;98.01;100640.53;5093284;28;20035;-66
2023/07/15 03:08:14;;;;;;;1.88;0.60;;;;;;;20.16;97.67;100641.16;5090943;28;20478;-66
2023/07/15 03:10:46;;;;;;;3.90;0.52;;;;;;;20.16;97.22;100643.81;5096322;28;20040;-65
2023/07/15 03:13:11;;;;;;;3.22;1.35;;;;;;;20.14;97.84;100647.66;5092040;28;20503;-66
2023/07/15 03:15:39;;;;;;;4.70;0.90;;;;;;;20.09;98.08;100637.69;5089568;28;20121;-65
2023/07/15 03:18:04;;;;;;;4.78;0.70;;;;;;;20.13;97.69;100649.50;5100786;28;20046;-65
2023/07/15 03:20:30;;;;;;;1.48;0.75;;;;;;;20.10;98.17;100647.25;5097200;28;20032;-65
2023/07/15 03:22:56;;;;;;;4.35;0.75;;;;;;;20.07;98.50;100647.66;5097308;28;20456;-65
2023/07/15 03:25:22;;;;;;;2.17;0.70;;;;;;;20.04;98.19;100650.69;5077687;28;20039;-65
2023/07/15 03:27:48;;;;;;;7.95;0.80;;;;;;;20.03;98.48;100649.06;5088417;28;20036;-65
2023/07/15 03:30:14;;;;;;;6.57;1.00;;;;;;;19.97;99.11;100654.34;5089992;28;20071;-65
2023/07/15 03:32:41;;;;;;;6.05;0.75;;;;;;;19.96;99.05;100658.81;5093489;28;20031;-65
2023/07/15 03:35:10;;;;;;;1.75;0.73;;;;;;;19.92;99.69;100649.66;5099565;28;20038;-65
2023/07/15 03:37:37;;;;;;;3.72;0.50;;;;;;;19.95;99.37;100651.91;5098626;28;20028;-65
2023/07/15 03:40:13;;;;;;;1.98;0.60;;;;;;;19.92;99.74;100647.00;5089754;28;20498;-65
2023/07/15 03:42:39;;;;;;;1.77;0.63;;;;;;;19.88;99.88;100649.25;5085825;28;20107;-65
2023/07/15 03:45:05;;;;;;;2.92;0.90;;;;;;;19.89;100.00;100650.88;5083720;28;20092;-65
2023/07/15 03:47:31;;;;;;;3.33;0.75;;;;;;;19.93;99.70;100645.19;5073070;28;20138;-65
2023/07/15 03:49:57;;;;;;;4.43;0.82;;;;;;;19.90;99.92;100649.03;5102335;28;20596;-65
2023/07/15 03:52:22;;;;;;;2.67;0.60;;;;;;;19.84;100.00;100655.16;5096522;28;20442;-65
2023/07/15 03:54:48;;;;;;;4.07;1.63;;;;;;;19.82;100.00;100646.63;5088103;28;20533;-66
2023/07/15 03:57:13;;;;;;;2.63;0.85;;;;;;;19.77;100.00;100654.31;5095033;28;20104;-66
2023/07/15 03:59:39;;;;;;;2.17;0.90;;;;;;;19.77;100.00;100651.69;5090056;28;20423;-65
2023/07/15 04:02:04;;;;;;;4.68;0.68;;;;;;;19.82;100.00;100654.53;5089915;28;20081;-65
2023/07/15 04:04:30;;;;;;;3.40;0.60;;;;;;;19.80;100.00;100659.22;5083605;28;20097;-65
2023/07/15 04:06:58;;;;;;;2.88;0.57;;;;;;;19.81;100.00;100656.38;5098521;28;20023;-65
2023/07/15 04:09:24;;;;;;;3.40;0.82;;;;;;;19.81;100.00;100666.94;5073403;28;20059;-65
2023/07/15 04:11:50;;;;;;;6.60;0.88;;;;;;;19.82;100.00;100657.19;5090679;28;20487;-65
2023/07/15 04:14:16;;;;;;;3.05;0.70;;;;;;;19.87;99.76;100662.66;5090564;28;20055;-65
2023/07/15 04:16:43;;;;;;;2.55;0.57;;;;;;;19.91;99.92;100663.91;5088284;28;20487;-68
2023/07/15 04:19:08;;;;;;;3.72;0.93;;;;;;;19.97;99.12;100663.09;5095446;28;20028;-66
2023/07/15 04:21:33;;;;;;;3.78;0.75;;;;;;;20.01;99.07;100658.22;5100448;28;20470;-68
2023/07/15 04:23:59;;;;;;;2.28;0.63;;;;;;;20.03;98.82;100659.66;5074309;28;20031;-68
2023/07/15 04:26:26;;;;;;;1.08;0.50;;;;;;;20.02;99.22;100658.03;5096596;28;20118;-68
2023/07/15 04:28:56;;;;;;;4.80;0.80;;;;;;;20.04;99.21;100661.28;5092949;28;20377;-68
2023/07/15 04:31:22;;;;;;;2.50;0.60;;;;;;;20.06;98.86;100661.88;5083639;28;20036;-68
2023/07/15 04:33:49;;;;;;;3.30;0.82;;;;;;;20.10;98.37;100659.66;5092038;28;20028;-68
2023/07/15 04:36:15;;;;;;;4.38;0.98;;;;;;;20.12;98.42;100658.44;5089431;28;20385;-69
2023/07/15 04:38:41;;;;;;;2.10;0.60;;;;;;;20.14;97.94;100656.41;5089902;28;20036;-68
2023/07/15 04:41:06;;;;;;;5.75;1.00;;;;;;;20.23;97.80;100658.88;5086354;28;20031;-68
2023/07/15 04:43:32;;;;;;;3.85;0.98;;;;;;;20.23;97.20;100658.88;5090911;28;20509;-69
2023/07/15 04:45:59;;;;;;;3.30;0.90;;;;;;;20.20;97.40;100666.19;5093744;28;20488;-69
2023/07/15 04:48:25;;;;;;;2.85;1.50;;;;;;;20.21;97.55;100665.16;5073039;28;20178;-69
2023/07/15 04:50:51;;;;;;;7.13;1.00;;;;;;;20.22;97.60;100668.63;5091340;28;20118;-69
2023/07/15 04:53:17;;;;;;;3.75;1.35;;;;;;;20.25;97.24;100667.41;5095457;28;20371;-68
2023/07/15 04:55:43;;;;;;;3.78;1.05;;;;;;;20.30;96.66;100670.28;5095378;28;20032;-69
2023/07/15 04:58:11;;;;;;;3.17;1.17;;;;;;;20.37;96.46;100666.56;5095769;28;20032;-69
2023/07/15 05:00:37;;;;;;;6.32;1.48;;;;;;;20.44;96.02;100666.63;5088553;28;20024;-69
2023/07/15 05:03:05;;;;;;;2.65;0.80;;;;;;;20.44;95.85;100659.50;5086569;28;20043;-69
2023/07/15 05:05:30;;;;;;;3.15;1.40;;;;;;;20.47;96.06;100666.22;5092018;28;20035;-69
2023/07/15 05:08:09;;;;;;;1.83;0.90;;;;;;;20.45;95.23;100665.59;5088644;28;20036;-69
2023/07/15 05:10:34;;;;;;;3.08;0.70;;;;;;;20.46;95.97;100670.69;5088891;28;20073;-68
2023/07/15 05:13:00;;;;;;;2.25;0.70;;;;;;;20.50;95.50;100666.63;5090051;28;20028;-69
2023/07/15 05:15:25;;;;;;;2.40;0.65;;;;;;;20.57;95.17;100661.31;5075831;28;20372;-69
2023/07/15 05:17:51;;;;;;;5.53;0.50;;;;;;;20.68;94.67;100663.34;5091391;28;20107;-68
2023/07/15 05:20:19;;;;;;;2.70;1.30;;;;;;;20.78;94.33;100668.22;5092947;28;20123;-70
2023/07/15 05:22:45;;;;;;;4.20;1.00;;;;;;;20.75;94.03;100669.47;5093533;28;20032;-71
2023/07/15 05:25:10;;;;;;;2.20;0.70;;;;;;;20.80;93.64;100672.28;5088900;28;20054;-70
2023/07/15 05:27:35;;;;;;;5.03;1.13;;;;;;;20.93;93.20;100668.78;5091484;28;20032;-70
2023/07/15 05:30:01;;;;;;;1.75;0.70;;;;;;;20.99;92.43;100681.22;5091092;28;20041;-70
2023/07/15 05:32:27;;;;;;;5.50;0.60;;;;;;;21.03;92.63;100684.25;5096162;28;20383;-70
2023/07/15 05:34:52;;;;;;;1.63;0.88;;;;;;;21.09;92.38;100683.44;5086600;28;20464;-70
2023/07/15 05:37:18;;;;;;;4.00;1.10;;;;;;;21.15;91.60;100678.13;5094294;28;20492;-70
2023/07/15 05:39:45;;;;;;;2.42;0.85;;;;;;;21.25;91.52;100683.00;5084766;28;20532;-70
2023/07/15 05:42:11;;;;;;;1.52;0.47;;;;;;;21.31;91.01;100684.00;5092952;28;20400;-69
2023/07/15 05:44:36;;;;;;;3.25;0.50;;;;;;;21.40;90.80;100683.56;5092041;28;20037;-69
2023/07/15 05:47:02;;;;;;;6.03;0.70;;;;;;;21.43;90.24;100677.00;5102030;28;20035;-69
2023/07/15 05:49:28;;;;;;;2.70;0.98;;;;;;;21.49;90.39;100671.69;5098201;28;20036;-70
2023/07/15 05:51:54;;;;;;;7.20;0.80;;;;;;;21.55;89.37;100675.34;5090793;28;20028;-70
2023/07/15 05:54:19;;;;;;;3.05;1.08;;;;;;;21.57;89.33;100672.47;5097090;28;20128;-69
2023/07/15 05:56:45;;;;;;;3.28;0.68;;;;;;;21.66;88.97;100676.50;5104521;28;20036;-70
2023/07/15 05:59:10;;;;;;;6.72;0.75;;;;;;;21.73;89.09;100672.00;5094842;28;20026;-71
2023/07/15 06:01:36;;;;;;;6.75;0.93;;;;;;;21.84;88.49;100673.94;5101210;28;20032;-71
2023/07/15 06:04:01;;;;;;;3.25;0.57;;;;;;;22.01;87.56;100684.88;5090648;28;20037;-69
2023/07/15 06:06:27;;;;;;;2.35;0.70;;;;;;;22.10;86.79;100684.44;5101140;28;20436;-70
2023/07/15 06:08:52;;;;;;;1.63;0.60;;;;;;;22.24;86.25;100689.63;5104177;28;20032;-72
2023/07/15 06:11:19;;;;;;;2.17;0.65;;;;;;;22.37;86.14;100687.69;5099184;28;20486;-70
2023/07/15 06:13:44;;;;;;;2.45;0.47;;;;;;;22.46;85.44;100694.38;5099615;28;20119;-69
2023/07/15 06:16:10;;;;;;;5.03;1.05;;;;;;;22.54;85.20;100700.44;5097192;28;20201;-70
2023/07/15 06:18:35;;;;;;;3.33;0.63;;;;;;;22.52;85.39;100703.31;5094191;28;20447;-69
2023/07/15 06:21:01;;;;;;;1.83;0.50;;;;;;;22.55;85.00;100697.56;5093790;28;20032;-72
2023/07/15 06:23:26;;;;;;;4.50;0.73;;;;;;;22.59;84.71;100695.28;5093068;28;20127;-68
2023/07/15 06:25:51;;;;;;;3.47;0.60;;;;;;;22.70;84.55;100705.19;5088228;28;20051;-69
2023/07/15 06:28:17;;;;;;;5.88;0.90;;;;;;;22.71;84.25;100693.53;5100900;28;20104;-69
2023/07/15 06:30:44;;;;;;;3.85;0.80;;;;;;;22.83;83.55;100697.13;5098535;28;20073;-69
2023/07/15 06:33:10;;;;;;;1.48;0.80;;;;;;;23.01;83.02;100693.69;5098734;28;20032;-69
2023/07/15 06:35:35;;;;;;;2.65;0.55;;;;;;;23.13;81.76;100702.56;5090797;28;20373;-69
2023/07/15 06:38:01;;;;;;;1.88;0.45;;;;;;;23.15;81.54;100697.84;5094630;28;20156;-69
2023/07/15 06:40:26;;;;;;;4.32;0.50;;;;;;;23.21;81.15;100694.25;5099390;28;20062;-69
2023/07/15 06:42:52;;;;;;;3.15;0.60;;;;;;;23.35;80.89;100694.94;5090790;28;20036;-69
2023/07/15 06:45:21;;;;;;;2.05;0.45;;;;;;;23.56;80.45;100689.19;5083990;28;20052;-69
2023/07/15 06:47:47;;;;;;;1.48;0.70;;;;;;;23.75;79.94;100687.28;5098223;28;20034;-69
2023/07/15 06:50:12;;;;;;;4.90;0.85;;;;;;;23.88;78.96;100691.59;5098460;28;20028;-70
2023/07/15 06:52:38;;;;;;;3.22;0.52;;;;;;;23.93;79.09;100689.91;5092055;28;20058;-69
2023/07/15 06:55:03;;;;;;;1.13;0.50;;;;;;;24.01;78.71;100681.59;5091281;28;20042;-69
2023/07/15 06:57:29;;;;;;;4.70;0.60;;;;;;;24.13;78.28;100686.91;5094399;28;20020;-69
2023/07/15 06:59:54;;;;;;;4.40;0.60;;;;;;;24.21;77.96;100680.47;5089885;28;20107;-70
2023/07/15 07:02:20;;;;;;;4.13;0.57;;;;;;;24.30;77.15;100679.13;5092483;28;20475;-68
2023/07/15 07:04:45;;;;;;;2.30;0.52;;;;;;;24.35;76.86;100679.25;5092251;28;20138;-69
2023/07/15 07:07:11;;;;;;;7.28;0.73;;;;;;;24.42;76.54;100680.78;5093256;28;20039;-69
2023/07/15 07:09:36;;;;;;;7.45;0.73;;;;;;;24.52;76.42;100682.88;5091757;28;20028;-69
2023/07/15 07:12:02;;;;;;;4.57;0.50;;;;;;;24.69;76.39;100683.78;5091316;28;20024;-69
2023/07/15 07:14:28;;;;;;;6.15;0.60;;;;;;;24.77;75.60;100688.75;5092967;28;20131;-71
2023/07/15 07:16:53;;;;;;;7.13;0.70;;;;;;;24.78;75.07;100681.56;5093161;28;20475;-70
2023/07/15 07:19:19;;;;;;;3.03;0.50;;;;;;;24.85;75.18;100698.25;5092793;28;20040;-69
2023/07/15 07:21:44;;;;;;;1.20;0.43;;;;;;;24.98;74.81;100691.91;5084175;28;20040;-70
2023/07/15 07:24:10;;;;;;;1.25;0.50;;;;;;;25.07;73.48;100690.47;5093036;28;20067;-69
2023/07/15 07:26:36;;;;;;;4.72;1.02;;;;;;;25.12;73.51;100694.06;5092452;28;20028;-69
2023/07/15 07:29:02;;;;;;;2.83;0.60;;;;;;;25.29;73.35;100691.50;5092734;28;20531;-69
2023/07/15 07:31:27;;;;;;;2.47;0.50;;;;;;;25.43;73.21;100692.84;5092058;28;20028;-70
2023/07/15 07:33:53;;;;;;;2.30;0.57;;;;;;;25.45;72.94;100682.75;5084975;28;20039;-69
2023/07/15 07:36:19;;;;;;;3.67;0.75;;;;;;;25.59;72.28;100687.78;5091955;28;20032;-70
2023/07/15 07:38:45;;;;;;;5.60;0.90;;;;;;;25.62;72.12;100690.78;5092130;28;20077;-69
2023/07/15 07:41:12;;;;;;;3.03;0.40;;;;;;;25.68;71.49;100689.06;5090503;28;20039;-70
2023/07/15 07:43:38;;;;;;;6.80;1.05;;;;;;;25.77;71.36;100685.78;5082551;28;20471;-69
2023/07/15 07:46:06;;;;;;;8.30;0.85;;;;;;;25.90;71.51;100692.69;5089208;28;20514;-71
2023/07/15 07:48:32;;;;;;;2.85;0.60;;;;;;;25.97;70.46;100685.34;5090925;28;20066;-70
2023/07/15 07:50:59;;;;;;;5.88;0.50;;;;;;;26.08;70.33;100679.09;5092410;28;20470;-70
2023/07/15 07:53:25;;;;;;;5.05;0.70;;;;;;;26.21;69.72;100679.84;5092456;28;20490;-70
2023/07/15 07:55:51;;;;;;;3.30;0.68;;;;;;;26.24;69.93;100679.38;5091805;28;20074;-69
2023/07/15 07:58:16;;;;;;;3.20;0.60;;;;;;;26.34;70.21;100684.91;5073952;28;20059;-70
2023/07/15 08:00:43;;;;;;;1.45;0.40;;;;;;;26.44;69.98;100685.06;5073489;28;20468;-69
2023/07/15 08:03:08;;;;;;;2.13;0.60;;;;;;;26.58;68.95;100680.19;5090813;28;20036;-69
2023/07/15 08:05:34;;;;;;;2.05;0.70;;;;;;;26.82;68.35;100675.47;5091651;28;20077;-69
2023/07/15 08:07:59;;;;;;;3.70;0.70;;;;;;;27.00;67.77;100675.19;5092026;28;20086;-70
2023/07/15 08:10:25;;;;;;;3.03;0.80;;;;;;;27.17;67.97;100678.63;5091899;28;20028;-69
2023/07/15 08:12:50;;;;;;;4.30;0.70;;;;;;;27.44;66.76;100684.81;5091600;28;20032;-69
2023/07/15 08:15:16;;;;;;;5.05;0.90;;;;;;;27.54;66.19;100683.31;5092020;28;20039;-70
2023/07/15 08:17:41;;;;;;;4.30;0.60;;;;;;;27.49;65.83;100680.56;5090032;28;20028;-70
2023/07/15 08:20:08;;;;;;;4.53;0.60;;;;;;;27.44;66.16;100687.47;5091876;28;20024;-70
2023/07/15 08:22:34;;;;;;;2.65;0.68;;;;;;;27.56;64.61;100681.19;5091476;28;20032;-69
2023/07/15 08:24:59;;;;;;;2.28;0.70;;;;;;;27.65;64.56;100687.75;5092048;28;20032;-70
2023/07/15 08:27:25;;;;;;;3.47;0.73;;;;;;;27.89;63.47;100688.22;5091881;28;20042;-70
2023/07/15 08:29:51;;;;;;;2.33;0.50;;;;;;;28.06;63.56;100686.25;5091402;28;20054;-69
2023/07/15 08:32:16;;;;;;;2.45;0.82;;;;;;;28.18;63.14;100683.41;5090829;28;20023;-70
2023/07/15 08:34:57;;;;;;;4.35;0.80;;;;;;;28.16;61.18;100690.91;5088735;28;20515;-70
2023/07/15 08:37:23;;;;;;;2.78;0.80;;;;;;;28.33;62.95;100683.56;5087514;28;20567;-69
2023/07/15 08:39:48;;;;;;;4.03;0.70;;;;;;;28.35;61.80;100684.94;5091315;28;20165;-69
2023/07/15 08:42:14;;;;;;;2.92;0.70;;;;;;;28.35;61.55;100684.13;5086169;28;20033;-70
2023/07/15 08:44:40;;;;;;;2.92;0.60;;;;;;;28.35;60.34;100684.13;5089209;28;20503;-69
2023/07/15 08:47:07;;;;;;;3.15;0.88;;;;;;;28.43;60.90;100680.94;5091485;28;20032;-70
2023/07/15 08:49:36;;;;;;;4.82;0.95;;;;;;;28.35;60.06;100684.13;5082525;28;20032;-70
2023/07/15 08:52:04;;;;;;;2.85;0.90;;;;;;;28.33;58.41;100684.38;5091401;28;20060;-69
2023/07/15 08:54:32;;;;;;;1.88;0.77;;;;;;;28.42;57.88;100687.38;5090863;28;20038;-69
2023/07/15 08:56:58;;;;;;;2.13;0.65;;;;;;;28.49;59.18;100684.47;5091207;28;20024;-70
2023/07/15 08:59:23;;;;;;;2.67;0.50;;;;;;;28.77;57.66;100691.38;5091180;28;20042;-70
2023/07/15 09:01:49;;;;;;;3.50;0.70;;;;;;;28.71;56.24;100688.66;5090742;28;20365;-70
2023/07/15 09:04:14;;;;;;;1.95;0.60;;;;;;;28.76;56.32;100682.50;5090251;28;20050;-70
2023/07/15 09:06:41;;;;;;;3.00;0.50;;;;;;;29.03;56.11;100691.25;5090590;28;20032;-69
2023/07/15 09:09:07;;;;;;;1.23;0.70;;;;;;;28.92;55.67;100683.41;5090958;28;20036;-70
2023/07/15 09:11:41;;;;;;;2.55;0.40;;;;;;;29.02;53.95;100686.16;5090431;28;20028;-70
2023/07/15 09:14:17;;;;;;;2.27;0.43;;;;;;;29.20;53.72;100683.03;5090921;28;20035;-68
2023/07/15 09:16:43;;;;;;;2.08;0.35;;;;;;;29.27;53.85;100686.28;5090484;28;20089;-68
2023/07/15 09:19:10;;;;;;;1.48;0.40;;;;;;;29.35;53.93;100683.06;5090394;28;20039;-68
2023/07/15 09:21:36;;;;;;;3.50;0.60;;;;;;;29.18;53.63;100685.16;5090192;28;20039;-67
2023/07/15 09:24:02;;;;;;;1.92;0.52;;;;;;;28.94;52.00;100687.44;5090596;28;20031;-67
2023/07/15 09:26:29;;;;;;;1.98;0.47;;;;;;;28.85;51.85;100682.84;5090437;28;20392;-67
2023/07/15 09:28:54;;;;;;;1.65;0.50;;;;;;;28.79;52.05;100690.03;5090759;28;20028;-68
2023/07/15 09:31:24;;;;;;;4.72;0.55;;;;;;;28.83;53.68;100690.38;5072533;28;20043;-67
2023/07/15 09:33:50;;;;;;;2.22;0.40;;;;;;;28.99;53.72;100684.78;5087823;28;20042;-67
2023/07/15 09:36:15;;;;;;;2.95;0.68;;;;;;;29.09;53.35;100684.03;5079420;28;20036;-68
2023/07/15 09:38:41;;;;;;;6.18;0.75;;;;;;;29.03;53.37;100693.13;5090283;28;20032;-68
2023/07/15 09:41:10;;;;;;;4.20;0.50;;;;;;;29.06;53.74;100695.28;5090759;28;20073;-68
2023/07/15 09:43:53;;;;;;;3.28;0.55;;;;;;;29.00;50.30;100689.09;5081786;28;20040;-68
2023/07/15 09:46:21;;;;;;;1.55;0.50;;;;;;;28.95;53.38;100688.25;5090563;28;20044;-67
2023/07/15 09:48:48;;;;;;;2.78;0.40;;;;;;;29.11;52.97;100681.91;5090149;28;20036;-67
2023/07/15 09:51:16;;;;;;;2.53;0.60;;;;;;;29.48;53.49;100691.72;5090586;28;20028;-67
2023/07/15 09:53:45;;;;;;;3.17;0.40;;;;;;;29.76;53.44;100688.56;5084953;28;20440;-68
2023/07/15 09:56:12;;;;;;;6.85;0.50;;;;;;;29.51;52.45;100683.94;5085027;28;20051;-67
2023/07/15 09:58:42;;;;;;;3.15;0.50;;;;;;;29.28;53.76;100693.25;5090020;28;20035;-68
2023/07/15 10:01:13;;;;;;;2.03;0.60;;;;;;;29.23;53.11;100684.38;5090529;28;20040;-68
2023/07/15 10:03:43;;;;;;;2.40;0.50;;;;;;;29.19;52.50;100686.78;5089764;28;20081;-68
2023/07/15 10:06:11;;;;;;;3.33;0.40;;;;;;;29.27;51.76;100686.28;5089969;28;20042;-68
2023/07/15 10:08:37;;;;;;;1.30;0.57;;;;;;;29.43;52.29;100687.13;5089858;28;20040;-68
2023/07/15 10:11:05;;;;;;;1.48;0.43;;;;;;;29.24;52.40;100688.66;5090247;28;20032;-68
2023/07/15 10:13:30;;;;;;;3.70;0.50;;;;;;;29.12;52.21;100686.19;5089525;28;20032;-67
2023/07/15 10:15:56;;;;;;;3.33;0.50;;;;;;;29.02;52.88;100688.84;5089870;28;20464;-68
2023/07/15 10:18:24;;;;;;;1.77;0.65;;;;;;;29.29;53.26;100696.75;5064747;28;20052;-68
2023/07/15 10:20:57;;;;;;;1.20;0.40;;;;;;;29.68;52.58;100697.16;5089152;28;20027;-68
2023/07/15 10:23:35;;;;;;;4.97;0.68;;;;;;;29.90;52.59;100694.22;5087487;28;20036;-67
2023/07/15 10:26:00;;;;;;;4.05;0.52;;;;;;;29.81;53.39;100695.81;5083791;28;20036;-67
2023/07/15 10:28:30;;;;;;;2.65;0.50;;;;;;;29.73;51.93;100699.84;5074538;28;20066;-67
2023/07/15 10:31:11;;;;;;;2.17;0.32;;;;;;;29.61;52.80;100701.97;5093907;28;20154;-68
2023/07/15 10:33:51;;;;;;;1.77;0.47;;;;;;;29.69;53.65;100698.75;5092896;28;20044;-67
2023/07/15 10:36:35;;;;;;;4.03;0.50;;;;;;;29.65;52.94;100703.84;5093947;28;20055;-68
2023/07/15 10:39:31;;;;;;;2.33;0.60;;;;;;;29.85;52.36;100708.44;5093895;28;20028;-67
2023/07/15 10:42:13;;;;;;;3.13;0.90;;;;;;;29.71;52.12;100708.16;5089395;28;20051;-67
2023/07/15 10:44:50;;;;;;;3.42;0.50;;;;;;;29.44;53.61;100704.84;5084835;28;20047;-67
2023/07/15 10:47:16;;;;;;;2.60;0.70;;;;;;;29.31;54.04;100705.31;5093770;28;20063;-67
2023/07/15 10:49:44;;;;;;;1.75;0.70;;;;;;;29.26;53.23;100703.44;5093090;28;20064;-67
2023/07/15 10:52:10;;;;;;;3.25;0.68;;;;;;;29.11;53.61;100698.00;5093640;28;20042;-67
2023/07/15 10:54:39;;;;;;;3.85;0.55;;;;;;;29.30;53.69;100707.19;5091077;28;20024;-67
2023/07/15 10:57:10;;;;;;;3.45;0.57;;;;;;;29.26;53.46;100700.75;5089111;28;20024;-67
2023/07/15 10:59:39;;;;;;;5.70;0.70;;;;;;;29.46;52.78;100705.41;5093066;28;20032;-67
2023/07/15 11:02:05;;;;;;;1.48;0.77;;;;;;;29.53;53.81;100708.66;5093335;28;20035;-68
2023/07/15 11:04:31;;;;;;;1.38;0.45;;;;;;;29.67;54.02;100712.44;5091118;28;20043;-68
2023/07/15 11:07:05;;;;;;;1.25;0.60;;;;;;;29.69;52.08;100710.31;5093361;28;20027;-67
2023/07/15 11:09:31;;;;;;;5.15;0.52;;;;;;;29.61;53.87;100710.81;5092710;28;20032;-67
2023/07/15 11:11:57;;;;;;;2.28;0.47;;;;;;;29.58;53.01;100713.22;5093300;28;20028;-68
2023/07/15 11:14:27;;;;;;;1.50;0.55;;;;;;;29.52;52.81;100711.59;5090957;28;20529;-68
2023/07/15 11:16:54;;;;;;;5.50;0.77;;;;;;;29.62;52.99;100714.31;5078792;28;20083;-67
2023/07/15 11:19:21;;;;;;;1.25;0.40;;;;;;;29.70;53.05;100703.88;5092730;28;20036;-68
2023/07/15 11:21:46;;;;;;;2.50;0.52;;;;;;;29.65;53.16;100698.47;5092649;28;20042;-68
2023/07/15 11:24:13;;;;;;;1.77;0.50;;;;;;;29.67;53.00;100698.22;5089213;28;20110;-68